Time;durP1;ratioP1;P1;durP2;ratioP2;P2;SDS_P1;SDS_P2;PMS_P1;PMS_P2;Temp;Humidity;BMP_temperature;BMP_pressure;BME280_temperature;BME280_humidity;BME280_pressure;Samples;Min_cycle;Max_cycle;Signal;HPM_P1;HPM_P2
2023/05/07 00:01:39;;;;;;;4.32;2.85;;;18.20;99.90;;;;;;5118157;27;20030;-78
2023/05/07 00:04:05;;;;;;;2.95;2.50;;;18.20;99.90;;;;;;5135897;27;20337;-78
2023/05/07 00:06:32;;;;;;;4.55;3.97;;;18.20;99.90;;;;;;5117444;27;20054;-78
2023/05/07 00:08:58;;;;;;;8.38;3.85;;;18.30;99.90;;;;;;5134445;27;20031;-78
2023/05/07 00:11:24;;;;;;;5.85;4.20;;;18.30;99.90;;;;;;5134576;27;20031;-78
2023/05/07 00:13:49;;;;;;;5.28;3.60;;;18.30;99.90;;;;;;5135700;27;20105;-77
2023/05/07 00:16:15;;;;;;;6.65;3.70;;;18.30;99.90;;;;;;5117401;27;20081;-78
2023/05/07 00:18:41;;;;;;;4.22;2.53;;;18.30;99.90;;;;;;5134421;27;20085;-78
2023/05/07 00:21:06;;;;;;;6.20;3.17;;;18.30;99.90;;;;;;5134334;27;20031;-78
2023/05/07 00:23:32;;;;;;;5.80;3.40;;;18.30;99.90;;;;;;5100158;27;20117;-77
2023/05/07 00:25:58;;;;;;;8.82;3.60;;;18.30;99.90;;;;;;5134357;27;20066;-77
2023/05/07 00:28:24;;;;;;;3.55;2.95;;;18.40;99.90;;;;;;5134205;27;20063;-78
2023/05/07 00:30:49;;;;;;;6.03;4.05;;;18.30;99.90;;;;;;5134500;27;20023;-78
2023/05/07 00:33:15;;;;;;;6.68;3.65;;;18.40;99.90;;;;;;5135300;27;20465;-78
2023/05/07 00:35:42;;;;;;;6.93;3.70;;;18.40;99.90;;;;;;5117754;27;20417;-77
2023/05/07 00:38:08;;;;;;;6.00;3.97;;;18.30;99.90;;;;;;5134468;27;20058;-78
2023/05/07 00:40:33;;;;;;;4.82;4.07;;;18.30;99.90;;;;;;5134110;27;20361;-78
2023/05/07 00:42:59;;;;;;;4.82;3.50;;;18.30;99.90;;;;;;5135275;27;20041;-78
2023/05/07 00:45:29;;;;;;;5.97;3.88;;;18.30;99.90;;;;;;5134253;27;20080;-77
2023/05/07 00:47:57;;;;;;;5.50;3.28;;;18.30;99.90;;;;;;5135361;27;20031;-78
2023/05/07 00:50:23;;;;;;;5.90;4.57;;;18.30;99.90;;;;;;5138291;27;20134;-78
2023/05/07 00:52:48;;;;;;;5.82;4.53;;;18.30;99.90;;;;;;5155552;27;20102;-77
2023/05/07 00:55:14;;;;;;;4.00;3.53;;;18.20;99.90;;;;;;5155748;27;20034;-77
2023/05/07 00:57:41;;;;;;;4.95;2.85;;;18.20;99.90;;;;;;5137363;27;20060;-77
2023/05/07 01:00:12;;;;;;;5.05;3.40;;;18.20;99.90;;;;;;5155609;27;20485;-77
2023/05/07 01:02:41;;;;;;;3.63;1.90;;;18.20;99.90;;;;;;5137884;27;20022;-77
2023/05/07 01:05:13;;;;;;;3.88;2.72;;;18.20;99.90;;;;;;5155419;27;20101;-78
2023/05/07 01:07:41;;;;;;;4.50;3.72;;;18.20;99.90;;;;;;5156094;27;20038;-78
2023/05/07 01:10:09;;;;;;;4.75;2.90;;;18.20;99.90;;;;;;5137072;27;20029;-78
2023/05/07 01:12:37;;;;;;;4.22;3.28;;;18.20;99.90;;;;;;5138149;27;20451;-77
2023/05/07 01:15:05;;;;;;;5.95;4.45;;;18.30;99.90;;;;;;5120306;27;20493;-77
2023/05/07 01:17:41;;;;;;;6.97;5.20;;;18.20;99.90;;;;;;5155018;27;20121;-78
2023/05/07 01:20:08;;;;;;;6.30;4.25;;;18.30;99.90;;;;;;5137149;27;20469;-77
2023/05/07 01:22:36;;;;;;;4.30;3.67;;;18.20;99.90;;;;;;5155082;27;20478;-77
2023/05/07 01:25:05;;;;;;;4.70;3.47;;;18.20;99.90;;;;;;5137273;27;20030;-77
2023/05/07 01:27:33;;;;;;;5.72;4.72;;;18.20;99.90;;;;;;5120787;27;20054;-77
2023/05/07 01:29:59;;;;;;;4.30;3.70;;;18.20;99.90;;;;;;5155300;27;20030;-76
2023/05/07 01:32:35;;;;;;;6.97;5.57;;;18.20;99.90;;;;;;5136683;27;20027;-77
2023/05/07 01:35:01;;;;;;;7.18;5.03;;;18.20;99.90;;;;;;5155593;27;20458;-77
2023/05/07 01:37:27;;;;;;;6.25;4.80;;;18.10;99.90;;;;;;5154980;27;20030;-77
2023/05/07 01:39:54;;;;;;;6.70;5.18;;;18.10;99.90;;;;;;5136768;27;20027;-77
2023/05/07 01:42:19;;;;;;;5.88;5.18;;;18.10;99.90;;;;;;5119566;27;20041;-77
2023/05/07 01:44:46;;;;;;;6.43;4.97;;;18.10;99.90;;;;;;5136789;27;20031;-77
2023/05/07 01:47:13;;;;;;;6.07;4.88;;;18.00;99.90;;;;;;5137064;27;20420;-77
2023/05/07 01:49:39;;;;;;;9.30;6.15;;;18.00;99.90;;;;;;5136802;27;20462;-77
2023/05/07 01:52:05;;;;;;;6.00;5.38;;;18.00;99.90;;;;;;5120645;27;20058;-76
2023/05/07 01:54:31;;;;;;;5.72;4.80;;;18.00;99.90;;;;;;5106824;27;20125;-77
2023/05/07 01:56:57;;;;;;;4.82;4.18;;;18.00;99.90;;;;;;5123715;27;20438;-77
2023/05/07 01:59:23;;;;;;;5.25;4.70;;;18.00;99.90;;;;;;5141021;27;20114;-77
2023/05/07 02:01:48;;;;;;;8.13;5.80;;;18.10;99.90;;;;;;5141067;27;20486;-78
2023/05/07 02:04:14;;;;;;;5.28;4.57;;;18.10;99.90;;;;;;5159327;27;20073;-78
2023/05/07 02:06:40;;;;;;;6.25;5.20;;;18.10;99.90;;;;;;5140764;27;20026;-78
2023/05/07 02:09:05;;;;;;;8.23;5.93;;;18.10;99.90;;;;;;5158520;27;20039;-77
2023/05/07 02:11:31;;;;;;;5.18;4.65;;;18.10;99.90;;;;;;5140484;27;20026;-77
2023/05/07 02:13:57;;;;;;;6.10;5.40;;;18.10;99.90;;;;;;5123665;27;20027;-78
2023/05/07 02:16:23;;;;;;;7.40;6.68;;;18.10;99.90;;;;;;5158883;27;20083;-77
2023/05/07 02:18:49;;;;;;;6.88;5.97;;;18.10;99.90;;;;;;5140412;27;20125;-78
2023/05/07 02:21:15;;;;;;;5.00;4.53;;;18.10;99.90;;;;;;5140138;27;20075;-78
2023/05/07 02:23:40;;;;;;;6.40;5.80;;;18.00;99.90;;;;;;5158712;27;20026;-78
2023/05/07 02:26:06;;;;;;;6.10;5.15;;;18.00;99.90;;;;;;5158322;27;20031;-78
2023/05/07 02:28:35;;;;;;;8.00;5.70;;;18.00;99.90;;;;;;5158746;27;20451;-77
2023/05/07 02:31:02;;;;;;;6.63;5.45;;;18.00;99.90;;;;;;5140510;27;20031;-77
2023/05/07 02:33:28;;;;;;;7.50;6.55;;;18.00;99.90;;;;;;5140030;27;20381;-76
2023/05/07 02:35:53;;;;;;;7.95;6.68;;;18.00;99.90;;;;;;5122811;27;20035;-77
2023/05/07 02:38:19;;;;;;;4.90;4.15;;;18.00;99.90;;;;;;5122444;27;20079;-78
2023/05/07 02:40:45;;;;;;;6.10;5.22;;;17.90;99.90;;;;;;5105752;27;20113;-77
2023/05/07 02:43:10;;;;;;;6.80;5.70;;;17.90;99.90;;;;;;5140055;27;20121;-78
2023/05/07 02:45:37;;;;;;;9.32;7.25;;;17.90;99.90;;;;;;5158518;27;20082;-78
2023/05/07 02:48:03;;;;;;;6.05;5.32;;;17.90;99.90;;;;;;5158320;27;20064;-78
2023/05/07 02:50:29;;;;;;;8.80;6.22;;;17.90;99.90;;;;;;5158275;27;20073;-78
2023/05/07 02:52:55;;;;;;;7.28;6.57;;;18.00;99.90;;;;;;5158653;27;20486;-78
2023/05/07 02:55:21;;;;;;;6.13;4.82;;;18.00;99.90;;;;;;5139578;27;20435;-77
2023/05/07 02:57:46;;;;;;;6.28;4.47;;;18.00;99.90;;;;;;5139152;27;20034;-77
2023/05/07 03:00:19;;;;;;;8.45;6.65;;;18.00;99.90;;;;;;5158012;27;20027;-77
2023/05/07 03:02:45;;;;;;;3.75;3.42;;;18.00;99.90;;;;;;5139490;27;20400;-78
2023/05/07 03:05:12;;;;;;;6.82;5.65;;;18.00;99.90;;;;;;5157115;27;20022;-78
2023/05/07 03:07:38;;;;;;;7.88;6.18;;;18.00;99.90;;;;;;5122293;27;20041;-78
2023/05/07 03:10:05;;;;;;;9.65;6.38;;;18.00;99.90;;;;;;5157677;27;20023;-78
2023/05/07 03:12:31;;;;;;;7.43;4.80;;;17.90;99.90;;;;;;5157875;27;20049;-78
2023/05/07 03:14:57;;;;;;;6.07;5.15;;;17.90;99.90;;;;;;5157610;27;20455;-78
2023/05/07 03:17:22;;;;;;;8.07;6.60;;;17.90;99.90;;;;;;5139216;27;20035;-78
2023/05/07 03:19:48;;;;;;;8.82;6.53;;;17.90;99.90;;;;;;5139662;27;20029;-78
2023/05/07 03:22:14;;;;;;;8.40;7.40;;;17.90;99.90;;;;;;5158049;27;20489;-77
2023/05/07 03:24:40;;;;;;;7.18;5.55;;;17.80;99.90;;;;;;5139015;27;20460;-78
2023/05/07 03:27:06;;;;;;;7.18;6.40;;;17.70;99.90;;;;;;5138995;27;20026;-78
2023/05/07 03:29:31;;;;;;;6.93;6.25;;;17.80;99.90;;;;;;5139580;27;20419;-77
2023/05/07 03:31:57;;;;;;;8.20;7.30;;;17.70;99.90;;;;;;5140126;27;20068;-78
2023/05/07 03:34:23;;;;;;;7.53;6.32;;;17.70;99.90;;;;;;5139129;27;20106;-78
2023/05/07 03:36:49;;;;;;;9.23;6.68;;;17.70;99.90;;;;;;5138696;27;20031;-78
2023/05/07 03:39:15;;;;;;;9.07;7.15;;;17.70;99.90;;;;;;5139124;27;20027;-78
2023/05/07 03:41:40;;;;;;;9.20;7.18;;;17.70;99.90;;;;;;5139014;27;20435;-78
2023/05/07 03:44:06;;;;;;;9.80;7.07;;;17.60;99.90;;;;;;5138955;27;20027;-78
2023/05/07 03:46:33;;;;;;;8.27;6.28;;;17.60;99.90;;;;;;5138873;27;20101;-78
2023/05/07 03:48:59;;;;;;;7.70;5.68;;;17.70;99.90;;;;;;5138595;27;20475;-77
2023/05/07 03:51:25;;;;;;;8.77;6.75;;;17.60;99.90;;;;;;5139260;27;20046;-78
2023/05/07 03:53:52;;;;;;;9.02;6.80;;;17.60;99.90;;;;;;5157407;27;20054;-77
2023/05/07 03:56:19;;;;;;;8.88;7.30;;;17.60;99.90;;;;;;5157530;27;20065;-78
2023/05/07 03:58:44;;;;;;;10.00;7.25;;;17.60;99.90;;;;;;5157174;27;20038;-78
2023/05/07 04:01:11;;;;;;;10.50;8.25;;;17.50;99.90;;;;;;5156655;27;20038;-78
2023/05/07 04:03:36;;;;;;;13.32;8.10;;;17.50;99.90;;;;;;5157119;27;20053;-78
2023/05/07 04:06:02;;;;;;;10.48;8.32;;;17.50;99.90;;;;;;5138297;27;20130;-78
2023/05/07 04:08:28;;;;;;;10.38;7.35;;;17.40;99.90;;;;;;5156670;27;20034;-78
2023/05/07 04:10:58;;;;;;;8.07;7.28;;;17.40;99.90;;;;;;5138883;27;20030;-78
2023/05/07 04:13:23;;;;;;;8.75;7.30;;;17.40;99.90;;;;;;5157426;27;20018;-78
2023/05/07 04:15:49;;;;;;;11.95;7.88;;;17.40;99.90;;;;;;5157142;27;20049;-79
2023/05/07 04:18:15;;;;;;;8.57;7.15;;;17.40;99.90;;;;;;5121237;27;20149;-78
2023/05/07 04:20:41;;;;;;;9.98;8.35;;;17.40;99.90;;;;;;5120815;27;20026;-78
2023/05/07 04:23:07;;;;;;;9.77;8.07;;;17.40;99.90;;;;;;5137979;27;20026;-78
2023/05/07 04:25:33;;;;;;;11.05;9.07;;;17.30;99.90;;;;;;5156442;27;20130;-78
2023/05/07 04:27:59;;;;;;;7.30;6.45;;;17.30;99.90;;;;;;5138377;27;20521;-78
2023/05/07 04:30:24;;;;;;;8.45;7.55;;;17.40;99.90;;;;;;5156778;27;20065;-78
2023/05/07 04:32:50;;;;;;;11.02;9.18;;;17.30;99.90;;;;;;5121976;27;20038;-78
2023/05/07 04:35:17;;;;;;;11.10;9.95;;;17.30;99.90;;;;;;5157085;27;20106;-79
2023/05/07 04:37:42;;;;;;;15.80;11.23;;;17.30;99.90;;;;;;5157211;27;20031;-78
2023/05/07 04:40:09;;;;;;;12.48;10.95;;;17.20;99.90;;;;;;5121388;27;20026;-78
2023/05/07 04:42:35;;;;;;;12.45;11.02;;;17.00;99.90;;;;;;5156362;27;20494;-78
2023/05/07 04:45:01;;;;;;;11.10;9.95;;;17.00;99.90;;;;;;5120692;27;20562;-78
2023/05/07 04:47:27;;;;;;;10.75;9.73;;;16.90;99.90;;;;;;5138600;27;20042;-77
2023/05/07 04:49:53;;;;;;;9.80;8.88;;;17.00;99.90;;;;;;5122512;27;20026;-78
2023/05/07 04:52:18;;;;;;;15.75;11.07;;;17.10;99.90;;;;;;5155737;27;20046;-78
2023/05/07 04:54:44;;;;;;;14.48;11.35;;;17.10;99.90;;;;;;5137418;27;20069;-78
2023/05/07 04:57:10;;;;;;;13.52;11.95;;;17.00;99.90;;;;;;5121368;27;20030;-77
2023/05/07 04:59:35;;;;;;;12.48;11.27;;;17.00;99.90;;;;;;5137167;27;20083;-78
2023/05/07 05:02:01;;;;;;;12.77;11.23;;;16.90;99.90;;;;;;5155697;27;20522;-78
2023/05/07 05:04:27;;;;;;;13.38;12.07;;;16.80;99.90;;;;;;5120820;27;20031;-78
2023/05/07 05:06:52;;;;;;;11.93;10.70;;;16.80;99.90;;;;;;5120623;27;20099;-78
2023/05/07 05:09:18;;;;;;;13.30;11.68;;;16.70;99.90;;;;;;5103086;27;20041;-78
2023/05/07 05:11:44;;;;;;;12.00;10.80;;;16.80;99.90;;;;;;5137564;27;20027;-77
2023/05/07 05:14:10;;;;;;;11.50;10.40;;;16.70;99.90;;;;;;5154794;27;20406;-77
2023/05/07 05:16:35;;;;;;;9.65;8.68;;;16.80;99.90;;;;;;5154742;27;20023;-77
2023/05/07 05:19:02;;;;;;;10.90;9.82;;;16.80;99.90;;;;;;5155064;27;20454;-77
2023/05/07 05:21:28;;;;;;;14.00;12.20;;;16.80;99.90;;;;;;5136373;27;20031;-78
2023/05/07 05:23:53;;;;;;;13.07;10.90;;;16.90;99.90;;;;;;5135965;27;20027;-78
2023/05/07 05:26:21;;;;;;;12.32;11.02;;;16.90;99.90;;;;;;5136326;27;20058;-78
2023/05/07 05:28:46;;;;;;;12.63;11.07;;;16.90;99.90;;;;;;5159234;27;20474;-78
2023/05/07 05:31:13;;;;;;;12.55;11.23;;;16.90;99.90;;;;;;5141312;27;20073;-78
2023/05/07 05:33:39;;;;;;;13.07;10.77;;;16.90;99.90;;;;;;5141303;27;20037;-77
2023/05/07 05:36:06;;;;;;;12.77;11.27;;;16.80;99.90;;;;;;5159839;27;20027;-77
2023/05/07 05:38:31;;;;;;;13.15;11.40;;;16.80;99.90;;;;;;5159529;27;20061;-78
2023/05/07 05:40:57;;;;;;;12.95;11.60;;;16.80;99.90;;;;;;5159162;27;20026;-78
2023/05/07 05:43:23;;;;;;;12.98;11.68;;;16.70;99.90;;;;;;5140900;27;20043;-78
2023/05/07 05:45:48;;;;;;;10.55;9.48;;;16.60;99.90;;;;;;5159151;27;20387;-78
2023/05/07 05:48:14;;;;;;;10.82;9.75;;;16.60;99.90;;;;;;5106592;27;20134;-78
2023/05/07 05:50:41;;;;;;;13.27;10.32;;;16.70;99.90;;;;;;5139964;27;20126;-78
2023/05/07 05:53:07;;;;;;;13.43;12.13;;;16.70;99.90;;;;;;5140483;27;20026;-78
2023/05/07 05:55:33;;;;;;;14.98;13.52;;;16.80;99.90;;;;;;5140496;27;20367;-78
2023/05/07 05:58:00;;;;;;;12.70;11.50;;;16.70;99.90;;;;;;5140071;27;20464;-78
2023/05/07 06:00:26;;;;;;;11.38;10.27;;;16.60;99.90;;;;;;5140976;27;20023;-78
2023/05/07 06:02:52;;;;;;;12.57;10.45;;;16.60;99.90;;;;;;5140577;27;20054;-79
2023/05/07 06:05:18;;;;;;;15.73;12.95;;;16.60;99.90;;;;;;5158577;27;20100;-78
2023/05/07 06:07:44;;;;;;;13.20;11.82;;;16.60;99.90;;;;;;5157985;27;20035;-78
2023/05/07 06:10:09;;;;;;;11.60;10.40;;;16.70;99.90;;;;;;5158813;27;20102;-78
2023/05/07 06:12:35;;;;;;;12.57;11.13;;;16.70;99.90;;;;;;5122907;27;20023;-78
2023/05/07 06:15:01;;;;;;;14.15;12.63;;;16.70;99.90;;;;;;5122965;27;20153;-78
2023/05/07 06:17:27;;;;;;;13.05;11.02;;;16.80;99.90;;;;;;5158569;27;20044;-78
2023/05/07 06:19:53;;;;;;;13.80;11.48;;;16.70;99.90;;;;;;5158878;27;20125;-79
2023/05/07 06:22:19;;;;;;;13.73;12.20;;;16.80;99.90;;;;;;5122657;27;20031;-78
2023/05/07 06:24:44;;;;;;;12.77;11.25;;;16.80;99.90;;;;;;5158167;27;20022;-78
2023/05/07 06:27:10;;;;;;;11.05;9.93;;;16.80;99.90;;;;;;5158297;27;20387;-79
2023/05/07 06:29:36;;;;;;;13.43;12.05;;;16.80;99.90;;;;;;5139419;27;20031;-78
2023/05/07 06:32:08;;;;;;;14.27;12.40;;;16.80;99.90;;;;;;5122434;27;20027;-78
2023/05/07 06:34:34;;;;;;;18.17;13.20;;;16.80;99.90;;;;;;5122112;27;20042;-78
2023/05/07 06:36:59;;;;;;;13.80;12.55;;;16.70;99.90;;;;;;5139131;27;20526;-78
2023/05/07 06:39:25;;;;;;;15.90;14.30;;;16.60;99.90;;;;;;5138868;27;20412;-78
2023/05/07 06:41:50;;;;;;;15.23;13.63;;;16.70;99.90;;;;;;5157485;27;20434;-78
2023/05/07 06:44:16;;;;;;;15.23;13.75;;;16.60;99.90;;;;;;5138747;27;20073;-78
2023/05/07 06:46:42;;;;;;;11.05;9.43;;;16.60;99.90;;;;;;5139304;27;20041;-78
2023/05/07 06:49:07;;;;;;;15.15;13.75;;;16.70;99.90;;;;;;5139045;27;20031;-78
2023/05/07 06:51:33;;;;;;;16.33;14.50;;;16.70;99.90;;;;;;5104697;27;20050;-78
2023/05/07 06:53:59;;;;;;;14.43;13.00;;;16.70;99.90;;;;;;5157487;27;20109;-78
2023/05/07 06:56:25;;;;;;;16.10;13.45;;;16.70;99.90;;;;;;5157053;27;20022;-78
2023/05/07 06:58:50;;;;;;;15.75;14.35;;;16.80;99.90;;;;;;5139097;27;20034;-78
2023/05/07 07:01:16;;;;;;;16.67;15.05;;;16.80;99.90;;;;;;5138554;27;20033;-79
2023/05/07 07:03:42;;;;;;;15.13;13.52;;;16.80;99.90;;;;;;5138463;27;20023;-78
2023/05/07 07:06:07;;;;;;;16.90;15.10;;;16.80;99.90;;;;;;5138623;27;20113;-78
2023/05/07 07:08:34;;;;;;;17.67;15.85;;;16.70;99.90;;;;;;5157275;27;20035;-78
2023/05/07 07:11:00;;;;;;;14.95;13.48;;;16.80;99.90;;;;;;5121526;27;20382;-78
2023/05/07 07:13:26;;;;;;;16.52;14.82;;;16.80;99.90;;;;;;5157003;27;20019;-78
2023/05/07 07:15:53;;;;;;;15.63;13.50;;;16.90;99.90;;;;;;5121176;27;20038;-78
2023/05/07 07:18:18;;;;;;;15.18;13.32;;;16.80;99.90;;;;;;5138648;27;20034;-79
2023/05/07 07:20:44;;;;;;;15.15;13.55;;;16.90;99.90;;;;;;5104052;27;20023;-78
2023/05/07 07:23:10;;;;;;;17.52;15.43;;;16.90;99.90;;;;;;5156902;27;20497;-78
2023/05/07 07:25:35;;;;;;;16.88;15.10;;;16.90;99.90;;;;;;5156374;27;20033;-78
2023/05/07 07:28:01;;;;;;;15.60;12.90;;;16.90;99.90;;;;;;5156256;27;20133;-78
2023/05/07 07:30:27;;;;;;;19.05;16.80;;;17.00;99.90;;;;;;5156347;27;20416;-78
2023/05/07 07:32:53;;;;;;;17.60;15.50;;;17.00;99.90;;;;;;5104294;27;20168;-78
2023/05/07 07:35:19;;;;;;;16.77;15.18;;;17.00;99.90;;;;;;5138220;27;20019;-78
2023/05/07 07:37:45;;;;;;;16.77;14.73;;;17.00;99.90;;;;;;5137801;27;20380;-77
2023/05/07 07:40:11;;;;;;;17.63;15.77;;;17.10;99.90;;;;;;5155916;27;20071;-78
2023/05/07 07:42:37;;;;;;;19.05;15.35;;;17.20;99.90;;;;;;5156281;27;20054;-78
2023/05/07 07:45:04;;;;;;;15.75;14.10;;;17.20;99.90;;;;;;5156547;27;20533;-78
2023/05/07 07:47:29;;;;;;;18.75;14.02;;;17.30;99.90;;;;;;5156843;27;20083;-78
2023/05/07 07:49:55;;;;;;;17.67;14.65;;;17.30;99.90;;;;;;5136807;27;20428;-78
2023/05/07 07:52:21;;;;;;;16.85;14.48;;;17.30;99.90;;;;;;5137298;27;20055;-78
2023/05/07 07:54:46;;;;;;;17.85;15.95;;;17.40;99.90;;;;;;5137724;27;20030;-77
2023/05/07 07:57:12;;;;;;;15.38;13.75;;;17.40;99.90;;;;;;5138009;27;20474;-78
2023/05/07 07:59:38;;;;;;;18.10;16.20;;;17.40;99.90;;;;;;5156073;27;20555;-77
2023/05/07 08:02:03;;;;;;;20.00;16.38;;;17.50;99.90;;;;;;5120153;27;20027;-78
2023/05/07 08:04:30;;;;;;;15.18;13.57;;;17.30;99.90;;;;;;5137291;27;20026;-78
2023/05/07 08:06:55;;;;;;;15.48;13.63;;;17.40;99.90;;;;;;5137300;27;20054;-78
2023/05/07 08:09:21;;;;;;;18.75;16.17;;;17.40;99.90;;;;;;5137255;27;20068;-78
2023/05/07 08:11:47;;;;;;;17.63;14.98;;;17.40;99.90;;;;;;5155624;27;20513;-78
2023/05/07 08:14:13;;;;;;;18.33;16.30;;;17.40;99.90;;;;;;5120452;27;20023;-78
2023/05/07 08:16:38;;;;;;;18.95;16.95;;;17.40;99.90;;;;;;5155667;27;20034;-77
2023/05/07 08:19:04;;;;;;;17.40;14.38;;;17.40;99.90;;;;;;5120491;27;20039;-78
2023/05/07 08:21:30;;;;;;;21.17;16.90;;;17.40;99.90;;;;;;5119822;27;20137;-78
2023/05/07 08:23:56;;;;;;;18.40;15.20;;;17.40;99.90;;;;;;5136940;27;20394;-77
2023/05/07 08:26:22;;;;;;;20.65;16.48;;;17.40;99.90;;;;;;5155458;27;20038;-78
2023/05/07 08:28:47;;;;;;;15.05;13.13;;;17.40;99.90;;;;;;5136849;27;20034;-78
2023/05/07 08:31:13;;;;;;;17.48;15.45;;;17.50;99.90;;;;;;5136889;27;20027;-78
2023/05/07 08:33:38;;;;;;;18.35;15.18;;;17.60;99.90;;;;;;5119793;27;20038;-78
2023/05/07 08:36:04;;;;;;;18.83;15.57;;;17.60;99.90;;;;;;5155380;27;20061;-77
2023/05/07 08:38:31;;;;;;;18.38;16.48;;;17.50;99.90;;;;;;5119875;27;20027;-78
2023/05/07 08:40:57;;;;;;;19.50;15.65;;;17.50;99.90;;;;;;5136790;27;20091;-78
2023/05/07 08:43:26;;;;;;;18.65;16.20;;;17.50;99.90;;;;;;5154800;27;20466;-79
2023/05/07 08:45:54;;;;;;;18.77;16.05;;;17.50;99.90;;;;;;5155046;27;20047;-78
2023/05/07 08:48:24;;;;;;;17.73;14.57;;;17.50;99.90;;;;;;5155038;27;20439;-78
2023/05/07 08:50:51;;;;;;;20.23;15.18;;;17.60;99.90;;;;;;5154727;27;20069;-77
2023/05/07 08:53:16;;;;;;;16.23;14.52;;;17.60;99.90;;;;;;5120135;27;20038;-78
2023/05/07 08:55:42;;;;;;;18.55;15.52;;;17.60;99.90;;;;;;5136406;27;20542;-77
2023/05/07 08:58:08;;;;;;;17.15;15.20;;;17.70;99.90;;;;;;5136480;27;20042;-78
2023/05/07 09:00:35;;;;;;;19.70;15.38;;;17.60;99.90;;;;;;5136488;27;20054;-77
2023/05/07 09:03:01;;;;;;;19.23;15.20;;;17.60;99.90;;;;;;5135443;27;20554;-78
2023/05/07 09:05:27;;;;;;;19.23;16.20;;;17.70;99.90;;;;;;5154528;27;20111;-78
2023/05/07 09:07:53;;;;;;;16.05;14.30;;;17.70;99.90;;;;;;5154942;27;20037;-77
2023/05/07 09:10:18;;;;;;;16.58;14.38;;;17.70;99.90;;;;;;5136653;27;20378;-77
2023/05/07 09:12:46;;;;;;;18.65;14.30;;;17.70;99.90;;;;;;5154949;27;20026;-78
2023/05/07 09:15:12;;;;;;;14.80;13.07;;;17.80;99.90;;;;;;5154801;27;20023;-78
2023/05/07 09:17:38;;;;;;;16.33;12.98;;;17.90;99.90;;;;;;5136802;27;20135;-78
2023/05/07 09:20:05;;;;;;;15.70;12.35;;;17.90;99.90;;;;;;5154529;27;20532;-78
2023/05/07 09:22:36;;;;;;;16.88;13.05;;;18.00;99.90;;;;;;5135976;27;20037;-78
2023/05/07 09:25:02;;;;;;;15.88;14.20;;;18.10;99.90;;;;;;5154941;27;20030;-78
2023/05/07 09:27:28;;;;;;;15.85;14.15;;;18.20;99.90;;;;;;5154090;27;20038;-78
2023/05/07 09:29:53;;;;;;;17.08;14.57;;;18.30;99.90;;;;;;5135375;27;20027;-78
2023/05/07 09:32:19;;;;;;;17.05;13.93;;;18.30;99.90;;;;;;5154314;27;20038;-78
2023/05/07 09:34:45;;;;;;;16.98;14.65;;;18.30;99.90;;;;;;5135738;27;20031;-78
2023/05/07 09:37:12;;;;;;;18.25;14.05;;;18.30;99.90;;;;;;5154441;27;20030;-78
2023/05/07 09:39:48;;;;;;;16.77;14.00;;;18.30;99.90;;;;;;5154112;27;20023;-79
2023/05/07 09:42:14;;;;;;;17.98;13.80;;;18.40;99.90;;;;;;5154557;27;20083;-78
2023/05/07 09:44:40;;;;;;;15.77;12.40;;;18.40;99.90;;;;;;5118835;27;20114;-79
2023/05/07 09:47:07;;;;;;;19.23;13.85;;;18.50;99.90;;;;;;5135537;27;20050;-79
2023/05/07 09:49:39;;;;;;;15.63;14.02;;;18.70;99.90;;;;;;5135596;27;20429;-78
2023/05/07 09:52:08;;;;;;;15.80;12.63;;;18.80;99.90;;;;;;5154415;27;20133;-79
2023/05/07 09:54:35;;;;;;;17.35;13.43;;;18.80;99.90;;;;;;5136389;27;20034;-78
2023/05/07 09:57:04;;;;;;;17.90;12.95;;;18.90;99.90;;;;;;5154470;27;20049;-78
2023/05/07 09:59:32;;;;;;;13.32;11.23;;;19.00;99.90;;;;;;5154822;27;20390;-78
2023/05/07 10:02:00;;;;;;;14.20;11.57;;;19.10;99.90;;;;;;5154802;27;20026;-78
2023/05/07 10:04:26;;;;;;;15.25;11.88;;;19.20;99.90;;;;;;5154371;27;20018;-78
2023/05/07 10:06:53;;;;;;;14.00;11.02;;;19.30;99.90;;;;;;5154780;27;20027;-78
2023/05/07 10:09:20;;;;;;;14.63;11.10;;;19.50;99.90;;;;;;5154172;27;20031;-78
2023/05/07 10:11:48;;;;;;;12.68;11.38;;;19.50;99.90;;;;;;5135895;27;20035;-78
2023/05/07 10:14:14;;;;;;;14.18;10.98;;;19.60;99.90;;;;;;5157265;27;20071;-78
2023/05/07 10:16:40;;;;;;;13.43;12.02;;;19.60;99.90;;;;;;5139848;27;20058;-77
2023/05/07 10:19:09;;;;;;;12.07;10.45;;;19.70;99.90;;;;;;5139460;27;20033;-79
2023/05/07 10:21:42;;;;;;;14.45;12.13;;;19.70;99.90;;;;;;5139408;27;20026;-77
2023/05/07 10:24:29;;;;;;;15.40;11.68;;;19.70;99.90;;;;;;5158210;27;20141;-76
2023/05/07 10:26:58;;;;;;;15.57;13.60;;;19.90;99.90;;;;;;5157975;27;20075;-77
2023/05/07 10:29:27;;;;;;;14.07;11.43;;;20.00;99.90;;;;;;5139132;27;20063;-77
2023/05/07 10:32:02;;;;;;;15.85;12.25;;;20.10;99.90;;;;;;5157618;27;20057;-77
2023/05/07 10:34:36;;;;;;;13.80;12.05;;;20.30;99.90;;;;;;5139819;27;20026;-78
2023/05/07 10:37:03;;;;;;;15.38;11.85;;;20.40;99.90;;;;;;5139247;27;20352;-78
2023/05/07 10:39:29;;;;;;;12.32;10.32;;;20.60;99.90;;;;;;5122154;27;20027;-78
2023/05/07 10:41:55;;;;;;;14.15;11.35;;;20.80;99.90;;;;;;5157589;27;20030;-78
2023/05/07 10:44:28;;;;;;;12.90;11.40;;;21.10;99.90;;;;;;5138892;27;20030;-78
2023/05/07 10:47:23;;;;;;;11.38;10.27;;;21.20;99.90;;;;;;5138920;27;20079;-78
2023/05/07 10:49:49;;;;;;;12.38;11.02;;;21.30;99.70;;;;;;5107200;27;20047;-78
2023/05/07 10:52:20;;;;;;;10.90;9.52;;;21.40;99.90;;;;;;5156924;27;20059;-78
2023/05/07 10:54:46;;;;;;;10.57;9.48;;;21.60;99.70;;;;;;5157173;27;20023;-78
2023/05/07 10:57:36;;;;;;;10.57;8.70;;;21.80;98.90;;;;;;5121437;27;20022;-77
2023/05/07 11:00:25;;;;;;;12.55;10.10;;;21.90;98.50;;;;;;5157088;27;20528;-77
2023/05/07 11:03:00;;;;;;;10.50;7.95;;;22.10;98.10;;;;;;5140652;27;20447;-78
2023/05/07 11:05:27;;;;;;;10.30;8.30;;;22.20;98.00;;;;;;5138918;27;20383;-78
2023/05/07 11:07:57;;;;;;;12.02;9.68;;;22.20;98.10;;;;;;5157249;27;20060;-77
2023/05/07 11:10:23;;;;;;;10.80;8.77;;;22.30;98.60;;;;;;5156950;27;20482;-77
2023/05/07 11:12:49;;;;;;;9.43;7.88;;;22.30;98.10;;;;;;5138766;27;20031;-78
2023/05/07 11:15:33;;;;;;;9.32;8.30;;;22.40;97.40;;;;;;5157345;27;20125;-78
2023/05/07 11:18:00;;;;;;;10.32;9.23;;;22.30;96.50;;;;;;5141095;27;20026;-77
2023/05/07 11:20:52;;;;;;;9.85;8.80;;;22.20;96.10;;;;;;5138995;27;20031;-77
2023/05/07 11:23:47;;;;;;;7.72;6.90;;;22.10;95.70;;;;;;5156659;27;20022;-78
2023/05/07 11:26:13;;;;;;;8.68;7.75;;;22.00;95.80;;;;;;5106052;27;20026;-78
2023/05/07 11:28:43;;;;;;;9.75;8.75;;;22.00;96.00;;;;;;5156193;27;20493;-77
2023/05/07 11:31:10;;;;;;;11.35;8.95;;;22.00;96.40;;;;;;5156494;27;20030;-78
2023/05/07 11:33:36;;;;;;;10.52;9.00;;;22.00;95.90;;;;;;5156373;27;20022;-78
2023/05/07 11:36:05;;;;;;;10.52;8.70;;;22.00;96.30;;;;;;5157320;27;20030;-76
2023/05/07 11:38:34;;;;;;;10.85;8.82;;;22.00;96.00;;;;;;5120803;27;20037;-77
2023/05/07 11:41:01;;;;;;;11.30;10.05;;;22.00;96.30;;;;;;5138577;27;20023;-77
2023/05/07 11:43:27;;;;;;;12.63;10.07;;;22.00;97.00;;;;;;5120914;27;20139;-77
2023/05/07 11:45:53;;;;;;;10.18;8.95;;;21.90;96.70;;;;;;5156365;27;20057;-76
2023/05/07 11:48:21;;;;;;;11.52;9.60;;;21.70;97.00;;;;;;5137835;27;20035;-77
2023/05/07 11:51:00;;;;;;;11.65;9.63;;;21.70;97.10;;;;;;5156307;27;20415;-76
2023/05/07 11:53:26;;;;;;;11.70;9.20;;;21.60;96.90;;;;;;5155776;27;20026;-76
2023/05/07 11:55:53;;;;;;;11.10;9.82;;;21.50;96.70;;;;;;5137183;27;20443;-76
2023/05/07 11:58:23;;;;;;;12.35;9.93;;;21.50;97.00;;;;;;5155582;27;20037;-76
2023/05/07 12:00:53;;;;;;;10.93;9.55;;;21.50;97.10;;;;;;5155603;27;20019;-76
2023/05/07 12:03:19;;;;;;;10.82;9.18;;;21.40;97.00;;;;;;5155773;27;20018;-77
2023/05/07 12:05:46;;;;;;;9.57;7.90;;;21.50;97.10;;;;;;5155632;27;20122;-78
2023/05/07 12:08:18;;;;;;;9.90;8.05;;;21.50;96.40;;;;;;5137016;27;20039;-78
2023/05/07 12:10:44;;;;;;;;;;;21.60;96.30;;;;;;5156225;27;20026;-78
2023/05/07 12:13:23;;;;;;;10.45;8.80;;;21.60;96.00;;;;;;5156084;27;20010;-78
2023/05/07 12:15:53;;;;;;;8.43;7.57;;;21.70;96.40;;;;;;5156712;27;20026;-77
2023/05/07 12:18:21;;;;;;;8.43;7.60;;;21.70;96.60;;;;;;5156795;27;20075;-77
2023/05/07 12:20:47;;;;;;;9.40;8.50;;;21.70;96.40;;;;;;5137823;27;20033;-77
2023/05/07 12:23:13;;;;;;;9.77;8.68;;;21.70;96.10;;;;;;5155638;27;20426;-77
2023/05/07 12:25:47;;;;;;;10.75;8.02;;;21.70;95.60;;;;;;5155678;27;20079;-78
2023/05/07 12:28:15;;;;;;;8.80;7.30;;;21.70;95.50;;;;;;5121850;27;20455;-77
2023/05/07 12:30:42;;;;;;;8.52;7.60;;;21.70;95.60;;;;;;5120479;27;20478;-77
2023/05/07 12:33:08;;;;;;;9.95;8.05;;;21.70;95.70;;;;;;5137124;27;20031;-78
2023/05/07 12:35:40;;;;;;;8.52;7.57;;;21.60;95.70;;;;;;5155269;27;20065;-77